createdAt,value
2023-04-20T00:02:07.885Z,3.90
2023-04-20T00:04:37.506Z,3.85
2023-04-20T00:07:04.779Z,4.00
2023-04-20T00:09:32.065Z,3.83
2023-04-20T00:11:59.079Z,3.88
2023-04-20T00:14:25.968Z,4.00
2023-04-20T00:16:54.301Z,4.15
2023-04-20T00:19:23.346Z,3.70
2023-04-20T00:21:51.542Z,4.22
2023-04-20T00:24:18.367Z,3.78
2023-04-20T00:26:45.154Z,3.88
2023-04-20T00:29:11.986Z,4.25
2023-04-20T00:31:38.805Z,3.85
2023-04-20T00:34:05.716Z,4.07
2023-04-20T00:36:32.649Z,3.88
2023-04-20T00:38:59.601Z,3.92
2023-04-20T00:41:26.564Z,4.30
2023-04-20T00:43:54.508Z,4.45
2023-04-20T00:46:22.402Z,3.67
2023-04-20T00:48:54.384Z,3.70
2023-04-20T00:51:22.718Z,3.90
2023-04-20T00:53:49.766Z,3.95
2023-04-20T00:56:16.741Z,3.65
2023-04-20T00:58:47.971Z,4.00
2023-04-20T01:01:18.930Z,4.10
2023-04-20T01:03:46.402Z,3.50
2023-04-20T01:06:14.653Z,4.88
2023-04-20T01:08:49.033Z,3.58
2023-04-20T01:11:15.927Z,4.47
2023-04-20T01:13:45.165Z,3.95
2023-04-20T01:16:17.490Z,4.28
2023-04-20T01:18:47.408Z,4.30
2023-04-20T01:21:17.466Z,3.80
2023-04-20T01:23:44.766Z,3.95
2023-04-20T01:26:14.773Z,4.47
2023-04-20T01:28:42.818Z,4.32
2023-04-20T01:31:11.274Z,4.88
2023-04-20T01:33:38.710Z,4.55
2023-04-20T01:36:07.025Z,4.43
2023-04-20T01:38:35.019Z,4.57
2023-04-20T01:41:04.655Z,4.10
2023-04-20T01:43:34.826Z,4.18
2023-04-20T01:46:02.040Z,4.60
2023-04-20T01:48:28.924Z,4.57
2023-04-20T01:50:56.249Z,4.13
2023-04-20T01:53:25.448Z,4.80
2023-04-20T01:55:52.638Z,4.25
2023-04-20T01:58:21.536Z,4.20
2023-04-20T02:00:48.667Z,4.43
2023-04-20T02:03:15.842Z,4.25
2023-04-20T02:05:42.818Z,4.47
2023-04-20T02:08:11.097Z,4.53
2023-04-20T02:10:38.201Z,4.47
2023-04-20T02:13:05.021Z,4.80
2023-04-20T02:15:33.775Z,5.30
2023-04-20T02:18:00.878Z,3.92
2023-04-20T02:20:27.917Z,4.30
2023-04-20T02:22:54.836Z,4.30
2023-04-20T02:25:23.498Z,4.40
2023-04-20T02:27:51.071Z,4.82
2023-04-20T02:30:18.105Z,4.93
2023-04-20T02:32:45.272Z,4.75
2023-04-20T02:35:12.496Z,4.47
2023-04-20T02:37:40.784Z,4.07
2023-04-20T02:40:08.844Z,4.88
2023-04-20T02:42:35.775Z,5.45
2023-04-20T02:45:02.859Z,4.78
2023-04-20T02:47:29.709Z,4.45
2023-04-20T02:49:56.806Z,5.57
2023-04-20T02:52:23.808Z,4.50
2023-04-20T02:54:50.668Z,4.90
2023-04-20T02:57:18.548Z,4.68
2023-04-20T02:59:45.397Z,4.63
2023-04-20T03:02:13.403Z,5.18
2023-04-20T03:04:40.466Z,4.40
2023-04-20T03:07:11.064Z,4.68
2023-04-20T03:09:38.252Z,5.20
2023-04-20T03:12:06.305Z,5.45
2023-04-20T03:14:34.638Z,4.43
2023-04-20T03:17:02.182Z,5.28
2023-04-20T03:19:31.683Z,5.45
2023-04-20T03:21:59.978Z,5.82
2023-04-20T03:24:26.829Z,5.53
2023-04-20T03:26:53.709Z,5.47
2023-04-20T03:29:20.726Z,6.45
2023-04-20T03:31:47.603Z,6.68
2023-04-20T03:34:14.463Z,6.22
2023-04-20T03:36:41.357Z,6.03
2023-04-20T03:39:08.411Z,6.07
2023-04-20T03:41:35.272Z,6.30
2023-04-20T03:44:02.208Z,5.97
2023-04-20T03:46:29.057Z,6.07
2023-04-20T03:48:55.861Z,6.10
2023-04-20T03:51:22.752Z,5.80
2023-04-20T03:53:49.659Z,5.72
2023-04-20T03:56:16.496Z,6.18
2023-04-20T03:58:43.307Z,6.18
2023-04-20T04:01:11.128Z,6.13
2023-04-20T04:03:38.257Z,6.10
2023-04-20T04:06:05.650Z,6.50
2023-04-20T04:08:32.579Z,5.50
2023-04-20T04:11:00.789Z,5.65
2023-04-20T04:13:28.702Z,6.07
2023-04-20T04:15:55.476Z,5.90
2023-04-20T04:18:22.690Z,5.88
2023-04-20T04:20:49.771Z,5.18
2023-04-20T04:23:16.595Z,6.53
2023-04-20T04:25:44.135Z,15.45
2023-04-20T04:28:11.340Z,9.25
2023-04-20T04:30:41.158Z,6.93
2023-04-20T04:33:10.295Z,6.40
2023-04-20T04:35:37.260Z,5.65
2023-04-20T04:38:04.166Z,6.18
2023-04-20T04:40:32.946Z,5.93
2023-04-20T04:43:01.483Z,6.20
2023-04-20T04:45:29.705Z,7.70
2023-04-20T04:47:57.335Z,7.25
2023-04-20T04:50:24.507Z,5.90
2023-04-20T04:52:52.617Z,6.15
2023-04-20T04:55:19.586Z,6.63
2023-04-20T04:57:46.509Z,6.65
2023-04-20T05:00:18.245Z,7.07
2023-04-20T05:02:45.120Z,6.15
2023-04-20T05:05:12.652Z,6.53
2023-04-20T05:07:40.316Z,6.00
2023-04-20T05:10:07.963Z,6.68
2023-04-20T05:12:34.872Z,6.80
2023-04-20T05:15:01.814Z,6.80
2023-04-20T05:17:28.773Z,6.63
2023-04-20T05:19:55.674Z,6.45
2023-04-20T05:22:22.950Z,6.70
2023-04-20T05:24:49.876Z,7.95
2023-04-20T05:27:16.740Z,8.05
2023-04-20T05:29:43.538Z,9.45
2023-04-20T05:32:10.365Z,9.45
2023-04-20T05:34:39.874Z,8.45
2023-04-20T05:37:06.715Z,8.50
2023-04-20T05:39:33.522Z,8.63
2023-04-20T05:42:00.350Z,7.35
2023-04-20T05:44:27.388Z,7.75
2023-04-20T05:46:55.969Z,7.50
2023-04-20T05:49:23.245Z,7.32
2023-04-20T05:51:50.695Z,7.03
2023-04-20T05:54:17.620Z,7.45
2023-04-20T05:56:44.449Z,7.13
2023-04-20T05:59:11.963Z,7.22
2023-04-20T06:01:40.642Z,6.53
2023-04-20T06:04:08.929Z,6.68
2023-04-20T06:16:56.804Z,7.10
2023-04-20T06:19:23.765Z,6.57
2023-04-20T06:21:51.015Z,6.65
2023-04-20T06:24:18.057Z,7.88
2023-04-20T06:26:44.960Z,7.35
2023-04-20T06:29:12.220Z,6.93
2023-04-20T06:31:39.300Z,7.60
2023-04-20T06:34:06.367Z,7.22
2023-04-20T06:36:33.683Z,7.22
2023-04-20T06:39:00.756Z,7.53
2023-04-20T06:41:27.671Z,7.32
2023-04-20T06:43:54.660Z,7.22
2023-04-20T06:46:21.736Z,6.47
2023-04-20T06:48:48.829Z,7.85
2023-04-20T06:51:16.174Z,7.53
2023-04-20T06:53:43.149Z,7.38
2023-04-20T06:56:11.646Z,7.05
2023-04-20T06:58:39.259Z,7.15
2023-04-20T07:01:07.040Z,7.57
2023-04-20T07:03:40.077Z,7.40
2023-04-20T07:06:07.855Z,7.50
2023-04-20T07:08:34.755Z,7.25
2023-04-20T07:11:02.086Z,7.40
2023-04-20T07:13:33.923Z,7.65
2023-04-20T07:16:01.571Z,7.75
2023-04-20T07:18:28.720Z,6.93
2023-04-20T07:20:56.314Z,7.45
2023-04-20T07:23:23.309Z,7.38
2023-04-20T07:25:50.411Z,7.25
2023-04-20T07:28:22.310Z,7.70
2023-04-20T07:30:52.821Z,8.20
2023-04-20T07:33:30.602Z,6.88
2023-04-20T07:35:58.594Z,7.30
2023-04-20T07:38:25.598Z,7.43
2023-04-20T07:40:53.017Z,7.57
2023-04-20T07:43:23.045Z,7.20
2023-04-20T07:45:54.888Z,7.57
2023-04-20T07:48:22.722Z,8.05
2023-04-20T07:50:51.293Z,7.20
2023-04-20T07:53:18.548Z,7.15
2023-04-20T07:55:49.700Z,7.47
2023-04-20T07:58:21.849Z,6.65
2023-04-20T08:00:49.543Z,7.35
2023-04-20T08:03:24.069Z,7.38
2023-04-20T08:05:52.478Z,6.65
2023-04-20T08:08:21.499Z,7.63
2023-04-20T08:10:53.519Z,6.50
2023-04-20T08:13:21.339Z,7.28
2023-04-20T08:15:49.881Z,7.05
2023-04-20T08:18:17.258Z,5.95
2023-04-20T08:20:46.776Z,6.97
2023-04-20T08:23:14.677Z,7.53
2023-04-20T08:25:42.766Z,6.60
2023-04-20T08:28:19.312Z,7.28
2023-04-20T08:30:56.682Z,7.10
2023-04-20T08:33:25.739Z,7.43
2023-04-20T08:35:55.369Z,6.05
2023-04-20T08:38:32.956Z,6.43
2023-04-20T08:41:02.982Z,6.03
2023-04-20T08:43:30.364Z,7.05
2023-04-20T08:46:04.768Z,6.60
2023-04-20T08:48:39.228Z,6.38
2023-04-20T08:51:07.139Z,6.32
2023-04-20T08:53:34.849Z,6.18
2023-04-20T08:56:02.276Z,6.18
2023-04-20T08:58:33.602Z,6.53
2023-04-20T09:01:03.264Z,6.80
2023-04-20T09:03:45.319Z,6.15
2023-04-20T09:06:18.169Z,7.05
2023-04-20T09:08:52.558Z,6.32
2023-04-20T09:11:30.431Z,6.97
2023-04-20T09:14:05.573Z,6.45
2023-04-20T09:16:35.684Z,6.40
2023-04-20T09:19:04.565Z,6.88
2023-04-20T09:21:34.411Z,6.22
2023-04-20T09:24:03.499Z,6.88
2023-04-20T09:26:37.264Z,6.85
2023-04-20T09:29:04.999Z,6.60
2023-04-20T09:31:32.739Z,6.32
2023-04-20T09:34:06.111Z,6.05
2023-04-20T09:36:45.268Z,6.30
2023-04-20T09:39:20.190Z,6.07
2023-04-20T09:41:50.723Z,6.90
2023-04-20T09:44:19.514Z,5.22
2023-04-20T09:46:48.006Z,5.03
2023-04-20T09:49:16.104Z,4.90
2023-04-20T09:51:47.806Z,5.20
2023-04-20T09:54:16.331Z,5.05
2023-04-20T09:56:45.061Z,4.88
2023-04-20T09:59:12.544Z,4.50
2023-04-20T10:01:41.996Z,4.72
2023-04-20T10:04:19.102Z,4.00
2023-04-20T10:06:58.554Z,2.58
2023-04-20T10:09:27.602Z,2.47
2023-04-20T10:12:12.115Z,2.53
2023-04-20T10:14:42.574Z,2.90
2023-04-20T10:17:13.112Z,2.08
2023-04-20T10:19:46.793Z,2.90
2023-04-20T10:22:33.432Z,3.22
2023-04-20T10:25:05.543Z,3.50
2023-04-20T10:27:34.123Z,3.15
2023-04-20T10:30:12.596Z,3.22
2023-04-20T10:32:41.662Z,4.15
2023-04-20T10:35:12.696Z,3.35
2023-04-20T10:37:52.145Z,3.10
2023-04-20T10:40:27.717Z,2.78
2023-04-20T10:42:56.080Z,2.90
2023-04-20T10:45:37.016Z,2.53
2023-04-20T10:48:10.659Z,2.35
2023-04-20T10:50:41.194Z,2.38
2023-04-20T10:53:36.894Z,2.42
2023-04-20T10:56:04.759Z,2.63
2023-04-20T10:58:32.882Z,3.15
2023-04-20T11:01:01.577Z,3.50
2023-04-20T11:03:30.843Z,3.42
2023-04-20T11:06:02.310Z,3.05
2023-04-20T11:08:43.403Z,3.85
2023-04-20T11:11:21.476Z,3.78
2023-04-20T11:13:49.337Z,3.92
2023-04-20T11:16:19.507Z,4.93
2023-04-20T11:18:55.630Z,4.90
2023-04-20T11:21:24.205Z,6.70
2023-04-20T11:23:53.455Z,5.25
2023-04-20T11:26:21.164Z,4.90
2023-04-20T11:28:56.307Z,5.00
2023-04-20T11:31:25.295Z,4.43
2023-04-20T11:33:52.863Z,5.07
2023-04-20T11:36:25.790Z,5.20
2023-04-20T11:38:53.934Z,5.18
2023-04-20T11:41:22.372Z,5.50
2023-04-20T11:43:51.274Z,5.63
2023-04-20T11:46:20.804Z,5.72
2023-04-20T11:48:50.341Z,6.13
2023-04-20T11:51:23.622Z,7.05
2023-04-20T11:53:53.149Z,6.60
2023-04-20T11:56:25.068Z,7.03
2023-04-20T11:58:52.893Z,6.75
2023-04-20T12:01:20.056Z,7.18
2023-04-20T12:03:48.260Z,7.75
2023-04-20T12:06:16.057Z,6.82
2023-04-20T12:08:48.198Z,7.03
2023-04-20T12:11:19.005Z,6.78
2023-04-20T12:13:48.976Z,6.25
2023-04-20T12:16:16.159Z,6.43
2023-04-20T12:18:43.403Z,6.55
2023-04-20T12:21:10.646Z,6.50
2023-04-20T12:23:38.231Z,6.18
2023-04-20T12:26:06.462Z,5.60
2023-04-20T12:28:35.316Z,5.72
2023-04-20T12:31:03.901Z,6.10
2023-04-20T12:33:32.465Z,5.70
2023-04-20T12:36:00.784Z,6.10
2023-04-20T12:38:27.948Z,5.10
2023-04-20T12:40:55.305Z,6.38
2023-04-20T12:43:23.851Z,6.15
2023-04-20T12:45:54.390Z,5.72
2023-04-20T12:48:21.649Z,5.68
2023-04-20T12:50:48.900Z,5.40
2023-04-20T12:53:18.117Z,5.75
2023-04-20T12:55:47.428Z,5.50
2023-04-20T12:58:18.481Z,5.97
2023-04-20T13:00:49.546Z,5.63
2023-04-20T13:03:16.918Z,5.97
2023-04-20T13:05:45.028Z,5.45
2023-04-20T13:08:13.827Z,5.85
2023-04-20T13:10:45.590Z,6.28
2023-04-20T13:13:13.745Z,5.53
2023-04-20T13:15:41.148Z,5.22
2023-04-20T13:18:10.157Z,5.10
2023-04-20T13:20:37.533Z,5.68
2023-04-20T13:23:05.869Z,5.90
2023-04-20T13:25:33.957Z,6.22
2023-04-20T13:28:03.111Z,5.63
2023-04-20T13:30:30.470Z,6.15
2023-04-20T13:32:57.878Z,5.85
2023-04-20T13:35:25.672Z,5.70
2023-04-20T13:37:53.223Z,5.25
2023-04-20T13:40:20.707Z,5.45
2023-04-20T13:42:48.823Z,5.70
2023-04-20T13:45:18.046Z,5.10
2023-04-20T13:47:45.501Z,5.35
2023-04-20T13:50:13.483Z,5.32
2023-04-20T13:52:40.571Z,5.53
2023-04-20T13:55:08.354Z,5.43
2023-04-20T13:57:35.537Z,5.05
2023-04-20T14:00:03.226Z,5.22
2023-04-20T14:02:32.148Z,5.25
2023-04-20T14:05:06.613Z,5.15
2023-04-20T14:07:34.121Z,5.55
2023-04-20T14:10:01.720Z,5.50
2023-04-20T14:12:29.424Z,5.28
2023-04-20T14:15:01.088Z,5.82
2023-04-20T14:17:30.129Z,5.40
2023-04-20T14:19:58.942Z,4.93
2023-04-20T14:22:27.713Z,5.03
2023-04-20T14:24:54.509Z,5.45
2023-04-20T14:27:21.341Z,4.70
2023-04-20T14:29:48.212Z,5.20
2023-04-20T14:32:15.368Z,5.53
2023-04-20T14:34:42.506Z,5.32
2023-04-20T14:37:09.902Z,5.10
2023-04-20T14:39:39.224Z,4.90
2023-04-20T14:42:06.052Z,5.43
2023-04-20T14:44:33.089Z,4.82
2023-04-20T14:47:00.248Z,5.50
2023-04-20T14:49:27.082Z,5.07
2023-04-20T14:51:53.892Z,5.10
2023-04-20T14:54:21.070Z,5.25
2023-04-20T14:56:47.996Z,4.68
2023-04-20T14:59:14.944Z,4.25
2023-04-20T15:01:51.350Z,4.70
2023-04-20T15:04:26.409Z,4.75
2023-04-20T15:06:53.419Z,5.30
2023-04-20T15:09:20.301Z,16.02
2023-04-20T15:11:47.351Z,7.55
2023-04-20T15:14:14.137Z,4.85
2023-04-20T15:16:40.964Z,5.22
2023-04-20T15:19:07.826Z,4.93
2023-04-20T15:21:34.712Z,5.07
2023-04-20T15:24:01.534Z,4.90
2023-04-20T15:26:28.348Z,4.93
2023-04-20T15:28:55.380Z,4.15
2023-04-20T15:31:22.790Z,5.10
2023-04-20T15:33:50.076Z,4.50
2023-04-20T15:36:19.570Z,5.13
2023-04-20T15:38:46.732Z,5.93
2023-04-20T15:41:13.708Z,4.93
2023-04-20T15:43:40.856Z,5.10
2023-04-20T15:46:10.042Z,5.28
2023-04-20T15:48:37.842Z,4.90
2023-04-20T15:51:04.901Z,5.20
2023-04-20T15:53:32.582Z,4.18
2023-04-20T15:55:59.428Z,4.43
2023-04-20T15:58:27.254Z,4.63
2023-04-20T16:00:54.164Z,5.25
2023-04-20T16:03:21.195Z,4.55
2023-04-20T16:05:48.393Z,4.80
2023-04-20T16:08:15.328Z,4.88
2023-04-20T16:10:42.147Z,4.50
2023-04-20T16:13:09.037Z,5.00
2023-04-20T16:15:36.115Z,5.38
2023-04-20T16:18:05.219Z,4.55
2023-04-20T16:20:32.163Z,4.95
2023-04-20T16:23:00.612Z,4.82
2023-04-20T16:25:28.764Z,4.80
2023-04-20T16:27:55.980Z,4.72
2023-04-20T16:30:22.963Z,4.43
2023-04-20T16:32:52.442Z,4.70
2023-04-20T16:35:19.292Z,4.65
2023-04-20T16:37:46.779Z,4.63
2023-04-20T16:40:13.592Z,5.40
2023-04-20T16:42:40.389Z,5.45
2023-04-20T16:45:07.892Z,7.75
2023-04-20T16:47:34.753Z,6.15
2023-04-20T16:50:01.598Z,7.50
2023-04-20T16:52:28.425Z,7.30
2023-04-20T16:54:55.875Z,8.52
2023-04-20T16:57:23.309Z,8.05
2023-04-20T16:59:51.159Z,11.68
2023-04-20T17:02:19.375Z,8.30
2023-04-20T17:04:47.716Z,6.90
2023-04-20T17:07:14.572Z,6.18
2023-04-20T17:09:41.419Z,6.65
2023-04-20T17:12:08.570Z,5.45
2023-04-20T17:14:37.254Z,6.35
2023-04-20T17:17:04.509Z,5.70
2023-04-20T17:19:31.442Z,5.63
2023-04-20T17:22:00.383Z,6.30
2023-04-20T17:24:27.276Z,6.00
2023-04-20T17:26:54.230Z,6.07
2023-04-20T17:29:21.155Z,6.40
2023-04-20T17:31:49.341Z,5.88
2023-04-20T17:34:16.545Z,5.85
2023-04-20T17:36:43.437Z,6.45
2023-04-20T17:39:10.367Z,6.78
2023-04-20T17:41:37.174Z,7.13
2023-04-20T17:44:03.981Z,7.00
2023-04-20T17:46:31.262Z,8.90
2023-04-20T17:48:58.190Z,6.57
2023-04-20T17:51:24.951Z,6.80
2023-04-20T17:53:51.792Z,8.18
2023-04-20T17:56:18.939Z,6.60
2023-04-20T17:58:46.485Z,6.82
2023-04-20T18:01:13.354Z,6.65
2023-04-20T18:03:40.814Z,7.63
2023-04-20T18:06:08.001Z,8.15
2023-04-20T18:08:34.907Z,6.80
2023-04-20T18:11:05.719Z,6.50
2023-04-20T18:13:32.573Z,6.88
2023-04-20T18:16:07.149Z,6.55
2023-04-20T18:18:34.996Z,6.55
2023-04-20T18:21:05.196Z,6.95
2023-04-20T18:23:32.808Z,6.97
2023-04-20T18:26:00.904Z,6.95
2023-04-20T18:28:27.836Z,7.20
2023-04-20T18:30:56.442Z,6.63
2023-04-20T18:33:24.556Z,7.03
2023-04-20T18:35:52.613Z,6.68
2023-04-20T18:38:19.430Z,7.97
2023-04-20T18:40:46.213Z,7.68
2023-04-20T18:43:13.013Z,6.93
2023-04-20T18:45:39.922Z,7.53
2023-04-20T18:48:06.900Z,7.38
2023-04-20T18:50:33.791Z,6.95
2023-04-20T18:53:00.650Z,6.55
2023-04-20T18:55:27.449Z,7.47
2023-04-20T18:57:54.263Z,7.95
2023-04-20T19:00:21.159Z,7.10
2023-04-20T19:02:49.099Z,8.52
2023-04-20T19:05:16.024Z,8.05
2023-04-20T19:07:42.829Z,8.38
2023-04-20T19:10:10.309Z,8.23
2023-04-20T19:12:38.646Z,9.48
2023-04-20T19:15:06.559Z,8.73
2023-04-20T19:17:35.446Z,9.07
2023-04-20T19:20:04.015Z,9.23
2023-04-20T19:22:30.787Z,9.50
2023-04-20T19:24:57.573Z,8.80
2023-04-20T19:27:24.407Z,9.88
2023-04-20T19:29:53.078Z,9.65
2023-04-20T19:32:19.991Z,10.52
2023-04-20T19:34:46.921Z,9.32
2023-04-20T19:37:13.753Z,9.55
2023-04-20T19:39:43.154Z,10.18
2023-04-20T19:42:10.116Z,10.75
2023-04-20T19:44:37.261Z,10.82
2023-04-20T19:47:04.520Z,10.23
2023-04-20T19:49:31.335Z,9.52
2023-04-20T19:51:58.244Z,10.07
2023-04-20T19:54:25.316Z,10.50
2023-04-20T19:56:52.157Z,10.07
2023-04-20T19:59:19.744Z,10.00
2023-04-20T20:01:48.340Z,9.40
2023-04-20T20:04:16.626Z,8.93
2023-04-20T20:06:44.537Z,9.30
2023-04-20T20:09:11.538Z,10.90
2023-04-20T20:11:38.393Z,11.10
2023-04-20T20:14:05.229Z,10.57
2023-04-20T20:16:32.081Z,10.38
2023-04-20T20:18:59.471Z,10.57
2023-04-20T20:21:27.484Z,10.73
2023-04-20T20:23:55.664Z,10.02
2023-04-20T20:26:22.482Z,11.48
2023-04-20T20:28:50.021Z,10.48
2023-04-20T20:31:16.843Z,10.43
2023-04-20T20:33:43.724Z,12.48
2023-04-20T20:36:10.621Z,12.32
2023-04-20T20:38:39.897Z,10.85
2023-04-20T20:41:06.822Z,10.77
2023-04-20T20:43:33.965Z,11.07
2023-04-20T20:46:00.770Z,11.75
2023-04-20T20:48:27.524Z,11.15
2023-04-20T20:50:54.333Z,14.23
2023-04-20T20:53:21.130Z,11.63
2023-04-20T20:55:49.049Z,13.30
2023-04-20T20:58:16.058Z,12.27
2023-04-20T21:00:43.674Z,22.88
2023-04-20T21:03:11.841Z,14.75
2023-04-20T21:05:40.707Z,17.15
2023-04-20T21:08:10.042Z,15.43
2023-04-20T21:10:36.897Z,12.95
2023-04-20T21:13:04.558Z,14.43
2023-04-20T21:15:31.452Z,24.73
2023-04-20T21:17:59.794Z,13.63
2023-04-20T21:20:26.690Z,13.48
2023-04-20T21:22:54.216Z,13.85
2023-04-20T21:25:21.118Z,13.98
2023-04-20T21:27:48.033Z,13.13
2023-04-20T21:30:14.952Z,15.63
2023-04-20T21:32:43.126Z,13.57
2023-04-20T21:35:10.353Z,26.80
2023-04-20T21:37:37.305Z,16.52
2023-04-20T21:40:04.645Z,14.05
2023-04-20T21:42:31.767Z,27.80
2023-04-20T21:44:58.579Z,13.93
2023-04-20T21:47:25.461Z,13.30
2023-04-20T21:49:52.257Z,12.23
2023-04-20T21:52:19.148Z,12.52
2023-04-20T21:54:46.636Z,12.52
2023-04-20T21:57:13.647Z,11.55
2023-04-20T21:59:41.454Z,11.60
2023-04-20T22:02:08.403Z,11.68
2023-04-20T22:04:35.523Z,12.45
2023-04-20T22:07:02.474Z,11.65
2023-04-20T22:09:30.222Z,12.20
2023-04-20T22:11:57.789Z,13.05
2023-04-20T22:14:26.214Z,12.80
2023-04-20T22:16:53.312Z,13.00
2023-04-20T22:19:21.257Z,11.27
2023-04-20T22:21:49.524Z,11.70
2023-04-20T22:24:17.494Z,12.98
2023-04-20T22:26:44.443Z,13.32
2023-04-20T22:29:11.231Z,12.63
2023-04-20T22:31:38.282Z,12.95
2023-04-20T22:34:05.121Z,12.90
2023-04-20T22:36:32.697Z,12.98
2023-04-20T22:38:59.544Z,13.35
2023-04-20T22:41:26.459Z,12.38
2023-04-20T22:43:53.234Z,13.93
2023-04-20T22:46:20.080Z,13.40
2023-04-20T22:48:48.541Z,12.52
2023-04-20T22:51:17.387Z,12.93
2023-04-20T22:53:44.640Z,14.35
2023-04-20T22:56:11.478Z,14.05
2023-04-20T22:58:38.293Z,14.05
2023-04-20T23:01:05.745Z,13.48
2023-04-20T23:03:32.896Z,14.00
2023-04-20T23:05:59.887Z,12.75
2023-04-20T23:08:28.155Z,13.60
2023-04-20T23:10:55.505Z,13.82
2023-04-20T23:13:24.753Z,12.73
2023-04-20T23:15:52.136Z,14.85
2023-04-20T23:18:19.001Z,13.45
2023-04-20T23:20:45.802Z,13.13
2023-04-20T23:23:12.585Z,12.05
2023-04-20T23:25:39.800Z,14.90
2023-04-20T23:28:06.654Z,13.80
2023-04-20T23:30:34.878Z,14.00
2023-04-20T23:33:01.694Z,13.45
2023-04-20T23:35:28.495Z,13.25
2023-04-20T23:37:55.690Z,14.20
2023-04-20T23:40:22.620Z,13.88
2023-04-20T23:42:49.442Z,13.43
2023-04-20T23:45:16.336Z,14.23
2023-04-20T23:47:43.148Z,13.48
2023-04-20T23:50:10.092Z,13.73
2023-04-20T23:52:37.108Z,13.68
2023-04-20T23:55:05.366Z,14.77
2023-04-20T23:57:32.570Z,15.48
